Port Lions, AK

6:14 AM AKST on December 19, 2014 (GMT -0900)
Seldovia | Change Station
CLOSE
Current Station
Airport
Location: Seldovia,
Elevation: 30 ft
Nearby Weather Stations

Elev 30 ft 59.44 °N, 151.70 °W | Updated 21 minutes ago

Partly Cloudy
Partly Cloudy
36 °F
Feels Like 29 °F
N
9
Wind Variable Wind from NNE

Today
High -- | Low -- °F
--% Chance of Precip.
Yesterday
High -- | Low -- °F
Precip. -- in
9:54 AM 4:24 PM
Waning Crescent, 7% visible
Pressure 29.06 in
Visibility 10.0 miles
Clouds Few 4700 ft
Windchill 29 °F
Dew Point 27 °F
Humidity 70%
Rainfall 0.00 in
Snow Depth Not available.
UV 0 out of 12
Pollen Not available.
Air Quality Not available.
Flu Activity Not available.
METAR PASO 191453Z AUTO 03008KT 10SM FEW047 02/M03 A2906 RMK AO2 SLP839 T00221028 56013 TSNO

More Conditions Fewer Conditions

Pressure 29.06 in
Visibility 10.0 miles
Clouds Few 4700 ft
Windchill 29 °F
Dew Point 27 °F
Humidity 70%
Rainfall 0.00 in
Snow Depth Not available.
UV 0 out of 12
Pollen Not available.
Air Quality Not available.
Flu Activity Not available.
METAR PASO 191453Z AUTO 03008KT 10SM FEW047 02/M03 A2906 RMK AO2 SLP839 T00221028 56013 TSNO

More Conditions Fewer Conditions

10-Day Weather Forecast

Almanac

Astronomy

Dec. 19, 2014 Rise Set
Actual Time
Civil Twilight
Nautical Twilight
Astronomical Twilight
Moon
Length of Visible Light
Length of Day
Tomorrow will be .
, % of the Moon is Illuminated

Today's Extremes

State Highs State Lows

Community

WunderPhotos

Upload Photos

1,778,996 photos uploaded!

WunderBlogs® & News

Nearby

Air Quality

  Air Quality AQ Index Pollutant
Not available.

Snow Depth

Station Depth Elevation

Earthquake Activity

City Distance Mag. Time & Date
Minimum magnitude displayed is 2.5.

Coastal Water Temperatures

Place Temperature

Nearby Weather Stations